Lobo

Go HERE for most recent data if this page is not up to date.

Jump to table bottom
Date/Time Temp deg F RH % 24 Hr Snow (in) Snow Depth (in) H2O (in)
03/05 05:00 1.3 72 1.8 50.0 0.00
03/05 04:00 3.0 66 1.8 50.1 0.00
03/05 03:00 3.0 56 1.9 50.2 0.00
03/05 02:00 2.5 60 1.9 50.3 0.00
03/05 01:00 3.0 60 1.9 50.3 0.00
03/05 00:00 3.9 64 1.8 50.5 0.00
03/04 23:00 4.7 74 1.8 50.6 0.02
03/04 22:00 5.3 82 1.7 50.4 0.00
03/04 21:00 5.3 79 1.4 50.4 0.02
03/04 20:00 6.2 82 1.2 50.2 0.04
03/04 19:00 6.9 78 0.3 49.2 0.02
03/04 18:00 7.6 79 0.0 49.3 0.02
03/04 17:00 8.6 69 -0.1 49.0 0.00
03/04 16:00 9.3 76 0.2 49.1 0.01
03/04 15:00 9.7 81 -0.0 49.1 0.01
03/04 14:00 12.2 49 -0.3 48.7 0.00
03/04 13:00 13.1 47 -0.1 48.8 0.00
03/04 12:00 11.7 40 -0.2 48.8 0.00
03/04 11:00 10.1 47 0.0 49.1 0.00
03/04 10:00 8.0 53 0.0 49.1 0.00
03/04 09:00 5.4 63 0.1 49.3 0.00
03/04 08:00 3.1 67 0.2 49.3 0.00
03/04 07:00 3.1 65 -0.0 49.2 0.00
03/04 06:00 4.2 66 0.0 49.4 0.00
03/04 05:00 4.6 68 0.0 49.5 0.00
03/04 04:00 4.5 70 0.0 49.5 0.00
03/04 03:00 4.6 76 0.1 49.6 0.00
03/04 02:00 4.3 68 0.0 49.8 0.00
03/04 01:00 4.2 71 0.1 49.9 0.00
03/04 00:00 4.4 68 0.2 50.0 0.00
.